createdAt,value
2022-07-30T00:01:47.423Z,1.80
2022-07-30T00:04:49.957Z,1.70
2022-07-30T00:07:52.175Z,1.42
2022-07-30T00:10:54.271Z,1.50
2022-07-30T00:13:56.440Z,1.52
2022-07-30T00:16:59.052Z,1.60
2022-07-30T00:20:02.947Z,1.60
2022-07-30T00:23:05.505Z,1.40
2022-07-30T00:26:07.689Z,1.60
2022-07-30T00:29:09.796Z,1.60
2022-07-30T00:32:12.071Z,1.25
2022-07-30T00:35:14.383Z,1.55
2022-07-30T00:38:16.570Z,1.25
2022-07-30T00:41:18.746Z,1.30
2022-07-30T00:44:20.940Z,1.40
2022-07-30T00:47:23.082Z,1.52
2022-07-30T00:50:25.313Z,1.52
2022-07-30T00:53:28.420Z,1.33
2022-07-30T00:56:30.742Z,1.52
2022-07-30T00:59:33.694Z,1.50
2022-07-30T01:02:36.063Z,1.50
2022-07-30T01:05:38.301Z,1.40
2022-07-30T01:08:40.455Z,1.23
2022-07-30T01:11:43.196Z,1.20
2022-07-30T01:14:45.462Z,1.52
2022-07-30T01:17:52.998Z,1.20
2022-07-30T01:21:08.249Z,1.40
2022-07-30T01:24:35.217Z,1.35
2022-07-30T01:27:45.888Z,1.77
2022-07-30T01:30:50.006Z,1.40
2022-07-30T01:33:53.093Z,1.38
2022-07-30T01:36:56.763Z,1.35
2022-07-30T01:39:59.738Z,1.15
2022-07-30T01:43:03.366Z,1.30
2022-07-30T01:46:07.565Z,1.45
2022-07-30T01:49:11.910Z,1.45
2022-07-30T01:52:17.050Z,1.20
2022-07-30T01:55:26.650Z,1.25
2022-07-30T01:58:32.807Z,1.40
2022-07-30T02:01:43.399Z,1.20
2022-07-30T02:04:45.623Z,1.42
2022-07-30T02:08:02.776Z,1.30
2022-07-30T02:11:37.371Z,1.20
2022-07-30T02:15:14.594Z,1.13
2022-07-30T02:18:33.061Z,1.10
2022-07-30T02:21:50.884Z,1.17
2022-07-30T02:24:55.797Z,1.40
2022-07-30T02:28:03.179Z,1.33
2022-07-30T02:31:17.282Z,1.23
2022-07-30T02:34:22.964Z,1.50
2022-07-30T02:37:43.142Z,1.50
2022-07-30T02:40:46.782Z,1.80
2022-07-30T02:43:51.200Z,1.63
2022-07-30T02:46:56.435Z,1.70
2022-07-30T02:50:06.540Z,1.60
2022-07-30T02:53:11.128Z,1.60
2022-07-30T02:56:17.613Z,1.70
2022-07-30T02:59:21.517Z,2.20
2022-07-30T03:02:28.969Z,2.20
2022-07-30T03:05:32.223Z,1.88
2022-07-30T03:08:36.804Z,2.03
2022-07-30T03:11:40.380Z,2.05
2022-07-30T03:14:42.716Z,2.13
2022-07-30T03:17:49.291Z,2.80
2022-07-30T03:20:58.534Z,2.58
2022-07-30T03:24:03.475Z,2.45
2022-07-30T03:27:08.393Z,1.98
2022-07-30T03:30:12.179Z,2.70
2022-07-30T03:33:15.900Z,2.10
2022-07-30T03:36:19.117Z,2.20
2022-07-30T03:39:23.323Z,2.25
2022-07-30T03:42:26.874Z,2.30
2022-07-30T03:45:30.345Z,2.10
2022-07-30T03:48:40.872Z,2.15
2022-07-30T03:51:43.872Z,2.55
2022-07-30T03:54:47.540Z,2.10
2022-07-30T03:58:08.365Z,2.13
2022-07-30T04:01:11.335Z,2.20
2022-07-30T04:04:13.622Z,2.55
2022-07-30T04:07:16.361Z,2.17
2022-07-30T04:10:18.592Z,2.13
2022-07-30T04:13:46.905Z,2.20
2022-07-30T04:17:04.822Z,2.10
2022-07-30T04:20:18.202Z,2.08
2022-07-30T04:23:20.821Z,1.95
2022-07-30T04:26:23.680Z,2.42
2022-07-30T04:29:25.934Z,2.45
2022-07-30T04:32:30.520Z,2.28
2022-07-30T04:35:52.912Z,2.25
2022-07-30T04:39:01.729Z,1.92
2022-07-30T04:42:04.413Z,2.00
2022-07-30T04:45:12.344Z,2.28
2022-07-30T04:48:27.018Z,2.42
2022-07-30T04:51:47.598Z,2.00
2022-07-30T04:54:57.973Z,1.92
2022-07-30T04:58:02.047Z,1.92
2022-07-30T05:01:06.904Z,2.08
2022-07-30T05:04:10.309Z,1.80
2022-07-30T05:07:18.116Z,2.00
2022-07-30T05:10:24.729Z,1.92
2022-07-30T05:13:34.118Z,1.80
2022-07-30T05:16:39.686Z,1.85
2022-07-30T05:19:41.938Z,1.92
2022-07-30T05:22:51.082Z,2.00
2022-07-30T05:25:55.693Z,1.63
2022-07-30T05:29:08.842Z,1.67
2022-07-30T05:32:25.466Z,1.40
2022-07-30T05:35:29.187Z,1.45
2022-07-30T05:38:31.370Z,1.40
2022-07-30T05:42:01.769Z,1.38
2022-07-30T05:45:10.826Z,1.23
2022-07-30T05:48:14.439Z,1.55
2022-07-30T05:51:18.855Z,1.38
2022-07-30T05:54:21.032Z,1.23
2022-07-30T05:57:39.188Z,1.73
2022-07-30T06:00:41.961Z,1.60
2022-07-30T06:03:44.174Z,1.50
2022-07-30T06:07:06.382Z,1.60
2022-07-30T06:10:09.155Z,1.50
2022-07-30T06:13:12.533Z,1.60
2022-07-30T06:16:15.303Z,1.60
2022-07-30T06:19:19.650Z,1.60
2022-07-30T06:22:26.024Z,1.40
2022-07-30T06:25:29.447Z,1.40
2022-07-30T06:28:38.226Z,1.70
2022-07-30T06:31:47.189Z,1.50
2022-07-30T06:34:56.457Z,1.48
2022-07-30T06:38:07.616Z,1.30
2022-07-30T06:41:20.862Z,1.60
2022-07-30T06:44:32.868Z,1.40
2022-07-30T06:47:58.903Z,1.60
2022-07-30T06:51:02.236Z,1.58
2022-07-30T06:54:04.953Z,1.52
2022-07-30T06:57:29.984Z,1.73
2022-07-30T07:00:36.355Z,1.40
2022-07-30T07:03:43.954Z,1.10
2022-07-30T07:06:46.149Z,1.30
2022-07-30T07:09:52.656Z,1.60
2022-07-30T07:13:15.374Z,1.48
2022-07-30T07:16:21.740Z,1.50
2022-07-30T07:20:01.276Z,1.15
2022-07-30T07:22:47.046Z,1.30
2022-07-30T07:25:49.561Z,1.40
2022-07-30T07:28:52.188Z,1.67
2022-07-30T07:32:05.787Z,1.35
2022-07-30T07:35:12.396Z,1.10
2022-07-30T07:38:16.358Z,1.10
2022-07-30T07:41:18.587Z,1.52
2022-07-30T07:44:20.691Z,1.42
2022-07-30T07:47:22.818Z,1.30
2022-07-30T07:50:41.197Z,1.20
2022-07-30T07:54:05.913Z,1.10
2022-07-30T07:57:14.727Z,1.25
2022-07-30T08:00:18.987Z,1.13
2022-07-30T08:03:26.260Z,1.30
2022-07-30T08:06:29.973Z,1.13
2022-07-30T08:09:52.043Z,1.38
2022-07-30T08:13:04.120Z,1.08
2022-07-30T08:16:24.625Z,1.00
2022-07-30T08:20:02.692Z,1.08
2022-07-30T08:23:05.748Z,1.13
2022-07-30T08:26:08.204Z,1.05
2022-07-30T08:29:13.051Z,4.50
2022-07-30T08:32:20.432Z,3.03
2022-07-30T08:35:32.681Z,2.42
2022-07-30T08:38:35.139Z,2.40
2022-07-30T08:41:38.370Z,2.47
2022-07-30T08:44:42.285Z,2.60
2022-07-30T08:47:46.806Z,1.90
2022-07-30T08:51:06.077Z,1.70
2022-07-30T08:54:08.325Z,1.75
2022-07-30T08:57:11.421Z,1.40
2022-07-30T09:00:15.355Z,1.20
2022-07-30T09:03:17.575Z,1.60
2022-07-30T09:06:20.320Z,1.58
2022-07-30T09:09:22.573Z,1.52
2022-07-30T09:13:01.005Z,1.48
2022-07-30T09:16:04.724Z,1.42
2022-07-30T09:19:21.933Z,1.50
2022-07-30T09:22:41.665Z,1.13
2022-07-30T09:26:19.304Z,1.50
2022-07-30T09:29:27.013Z,1.52
2022-07-30T09:32:53.277Z,1.25
2022-07-30T09:36:16.799Z,1.40
2022-07-30T09:39:59.182Z,1.33
2022-07-30T09:43:24.540Z,1.48
2022-07-30T09:46:45.488Z,1.52
2022-07-30T09:50:09.696Z,1.17
2022-07-30T09:53:12.475Z,1.42
2022-07-30T09:56:27.084Z,1.48
2022-07-30T09:59:35.070Z,1.55
2022-07-30T10:02:38.221Z,1.40
2022-07-30T10:06:17.053Z,1.70
2022-07-30T10:09:37.370Z,1.23
2022-07-30T10:12:40.896Z,1.70
2022-07-30T10:15:44.994Z,1.10
2022-07-30T10:18:47.987Z,1.40
2022-07-30T10:22:11.625Z,1.60
2022-07-30T10:25:49.656Z,1.35
2022-07-30T10:29:19.808Z,1.58
2022-07-30T10:32:30.594Z,1.70
2022-07-30T10:35:37.739Z,1.75
2022-07-30T10:38:44.925Z,1.25
2022-07-30T10:42:15.138Z,1.10
2022-07-30T10:45:28.857Z,1.48
2022-07-30T10:48:34.440Z,1.20
2022-07-30T10:51:48.875Z,1.40
2022-07-30T10:54:54.189Z,1.33
2022-07-30T10:58:15.474Z,1.20
2022-07-30T11:01:18.732Z,1.10
2022-07-30T11:04:22.388Z,1.35
2022-07-30T11:07:31.543Z,1.10
2022-07-30T11:10:40.532Z,1.17
2022-07-30T11:14:01.297Z,1.27
2022-07-30T11:17:04.584Z,1.15
2022-07-30T11:20:11.854Z,1.13
2022-07-30T11:23:19.873Z,1.30
2022-07-30T11:26:48.913Z,1.38
2022-07-30T11:29:53.552Z,1.10
2022-07-30T11:33:18.651Z,1.20
2022-07-30T11:36:21.154Z,0.93
2022-07-30T11:39:53.488Z,1.08
2022-07-30T11:43:18.299Z,1.30
2022-07-30T11:46:28.679Z,1.10
2022-07-30T11:49:37.432Z,1.05
2022-07-30T11:52:40.694Z,1.42
2022-07-30T11:55:51.864Z,1.40
2022-07-30T11:59:03.324Z,1.45
2022-07-30T12:02:05.770Z,1.77
2022-07-30T12:05:08.396Z,1.50
2022-07-30T12:08:35.270Z,1.30
2022-07-30T12:11:35.351Z,1.30
2022-07-30T12:14:39.159Z,1.60
2022-07-30T12:17:46.355Z,1.50
2022-07-30T12:20:59.340Z,1.48
2022-07-30T12:24:04.367Z,1.52
2022-07-30T12:27:08.665Z,1.77
2022-07-30T12:30:12.225Z,1.55
2022-07-30T12:33:14.552Z,1.60
2022-07-30T12:36:31.271Z,1.58
2022-07-30T12:39:33.554Z,1.65
2022-07-30T12:42:36.082Z,1.83
2022-07-30T12:45:51.608Z,1.60
2022-07-30T12:48:54.855Z,1.50
2022-07-30T12:52:00.114Z,1.60
2022-07-30T12:55:07.441Z,2.03
2022-07-30T12:58:09.586Z,1.67
2022-07-30T13:01:13.638Z,1.55
2022-07-30T13:04:16.162Z,1.88
2022-07-30T13:07:19.301Z,1.95
2022-07-30T13:10:27.200Z,1.95
2022-07-30T13:13:34.413Z,1.70
2022-07-30T13:16:36.960Z,1.60
2022-07-30T13:19:39.096Z,1.50
2022-07-30T13:22:43.433Z,1.50
2022-07-30T13:25:45.593Z,1.90
2022-07-30T13:28:47.738Z,1.80
2022-07-30T13:31:49.893Z,1.63
2022-07-30T13:34:52.057Z,1.63
2022-07-30T13:37:54.284Z,1.45
2022-07-30T13:41:01.848Z,1.15
2022-07-30T13:44:05.747Z,1.70
2022-07-30T13:47:09.359Z,1.40
2022-07-30T13:50:11.547Z,1.33
2022-07-30T13:53:14.022Z,1.30
2022-07-30T13:56:16.901Z,1.30
2022-07-30T13:59:22.208Z,1.27
2022-07-30T14:02:31.084Z,1.35
2022-07-30T14:05:42.011Z,1.52
2022-07-30T14:08:45.945Z,1.13
2022-07-30T14:11:49.231Z,1.40
2022-07-30T14:14:51.361Z,1.27
2022-07-30T14:17:55.978Z,1.17
2022-07-30T14:20:59.149Z,1.40
2022-07-30T14:24:02.245Z,1.20
2022-07-30T14:27:06.323Z,0.90
2022-07-30T14:30:10.572Z,1.30
2022-07-30T14:33:12.626Z,1.27
2022-07-30T14:36:16.802Z,1.17
2022-07-30T14:39:19.185Z,1.05
2022-07-30T14:42:21.301Z,1.23
2022-07-30T14:45:23.749Z,1.20
2022-07-30T14:48:26.942Z,1.20
2022-07-30T14:51:34.529Z,1.30
2022-07-30T14:54:37.072Z,1.13
2022-07-30T14:57:39.352Z,1.17
2022-07-30T15:00:48.929Z,1.33
2022-07-30T15:03:53.256Z,1.35
2022-07-30T15:07:01.193Z,1.13
2022-07-30T15:10:07.483Z,1.17
2022-07-30T15:13:09.646Z,1.17
2022-07-30T15:16:13.600Z,1.00
2022-07-30T15:19:16.698Z,1.10
2022-07-30T15:22:22.387Z,1.00
2022-07-30T15:25:25.116Z,1.10
2022-07-30T15:28:27.293Z,1.10
2022-07-30T15:31:29.383Z,1.10
2022-07-30T15:34:34.558Z,0.90
2022-07-30T15:37:36.868Z,1.05
2022-07-30T15:40:40.303Z,1.15
2022-07-30T15:43:47.160Z,1.00
2022-07-30T15:46:49.386Z,1.00
2022-07-30T15:49:51.626Z,1.20
2022-07-30T15:52:54.299Z,1.05
2022-07-30T15:55:56.861Z,0.98
2022-07-30T15:58:59.999Z,1.00
2022-07-30T16:02:03.447Z,1.00
2022-07-30T16:05:09.426Z,1.00
2022-07-30T16:08:14.016Z,1.10
2022-07-30T16:11:21.323Z,0.90
2022-07-30T16:14:23.738Z,1.13
2022-07-30T16:17:26.991Z,1.20
2022-07-30T16:20:29.152Z,0.90
2022-07-30T16:23:36.316Z,1.08
2022-07-30T16:26:38.773Z,1.05
2022-07-30T16:29:40.842Z,1.00
2022-07-30T16:32:43.055Z,0.90
2022-07-30T16:35:49.195Z,1.10
2022-07-30T16:38:53.299Z,1.08
2022-07-30T16:41:55.417Z,1.00
2022-07-30T16:44:57.988Z,1.10
2022-07-30T16:48:00.411Z,1.00
2022-07-30T16:51:02.969Z,1.00
2022-07-30T16:54:07.641Z,0.85
2022-07-30T16:57:10.594Z,1.05
2022-07-30T17:00:14.688Z,0.90
2022-07-30T17:03:20.046Z,0.98
2022-07-30T17:06:26.386Z,0.93
2022-07-30T17:09:37.616Z,0.98
2022-07-30T17:12:40.194Z,1.20
2022-07-30T17:15:42.599Z,1.35
2022-07-30T17:18:44.957Z,1.15
2022-07-30T17:21:47.092Z,1.10
2022-07-30T17:24:49.213Z,1.05
2022-07-30T17:27:51.406Z,0.85
2022-07-30T17:30:53.604Z,0.90
2022-07-30T17:33:55.720Z,1.00
2022-07-30T17:36:58.862Z,1.00
2022-07-30T17:40:23.930Z,1.00
2022-07-30T17:43:23.178Z,1.42
2022-07-30T17:46:25.687Z,1.05
2022-07-30T17:49:28.148Z,1.20
2022-07-30T17:52:32.530Z,1.10
2022-07-30T17:55:35.433Z,1.10
2022-07-30T17:58:37.845Z,1.30
2022-07-30T18:01:40.174Z,1.08
2022-07-30T18:04:42.274Z,1.10
2022-07-30T18:07:44.667Z,1.30
2022-07-30T18:10:46.777Z,0.98
2022-07-30T18:13:48.901Z,1.20
2022-07-30T18:16:52.306Z,1.25
2022-07-30T18:19:54.438Z,1.33
2022-07-30T18:22:57.188Z,1.20
2022-07-30T18:25:59.391Z,1.50
2022-07-30T18:29:03.552Z,1.17
2022-07-30T18:32:06.612Z,1.40
2022-07-30T18:35:13.860Z,1.30
2022-07-30T18:38:17.103Z,1.35
2022-07-30T18:41:19.365Z,1.40
2022-07-30T18:44:21.480Z,1.27
2022-07-30T18:47:23.733Z,1.40
2022-07-30T18:50:26.562Z,1.50
2022-07-30T18:53:29.818Z,1.30
2022-07-30T18:56:31.983Z,1.50
2022-07-30T18:59:34.666Z,1.30
2022-07-30T19:02:37.897Z,1.50
2022-07-30T19:05:40.659Z,1.35
2022-07-30T19:08:42.843Z,1.40
2022-07-30T19:11:45.944Z,1.35
2022-07-30T19:14:49.151Z,1.67
2022-07-30T19:17:53.130Z,1.30
2022-07-30T19:20:55.302Z,1.30
2022-07-30T19:23:57.577Z,1.35
2022-07-30T19:26:59.769Z,1.30
2022-07-30T19:30:02.116Z,1.77
2022-07-30T19:33:12.642Z,1.48
2022-07-30T19:40:05.755Z,1.55
2022-07-30T19:43:06.564Z,1.60
2022-07-30T19:46:14.690Z,1.70
2022-07-30T19:49:19.500Z,1.42
2022-07-30T19:52:25.523Z,1.55
2022-07-30T19:55:35.034Z,1.70
2022-07-30T19:58:40.303Z,1.70
2022-07-30T20:01:43.203Z,1.33
2022-07-30T20:04:48.627Z,1.45
2022-07-30T20:07:52.066Z,1.50
2022-07-30T20:10:57.567Z,1.80
2022-07-30T20:14:00.266Z,1.52
2022-07-30T20:17:03.075Z,1.80
2022-07-30T20:20:06.789Z,1.80
2022-07-30T20:23:09.329Z,1.70
2022-07-30T20:26:14.974Z,2.08
2022-07-30T20:29:19.187Z,2.00
2022-07-30T20:32:33.617Z,1.60
2022-07-30T20:35:35.907Z,1.70
2022-07-30T20:38:40.238Z,1.55
2022-07-30T20:42:08.060Z,1.88
2022-07-30T20:45:10.946Z,2.20
2022-07-30T20:48:16.956Z,1.85
2022-07-30T20:51:20.769Z,1.70
2022-07-30T20:54:22.989Z,1.83
2022-07-30T20:57:44.239Z,2.20
2022-07-30T21:00:49.798Z,2.28
2022-07-30T21:03:53.039Z,2.20
2022-07-30T21:06:59.220Z,2.35
2022-07-30T21:10:02.287Z,2.45
2022-07-30T21:13:07.502Z,2.05
2022-07-30T21:16:16.262Z,2.42
2022-07-30T21:19:18.878Z,3.43
2022-07-30T21:22:21.976Z,2.30
2022-07-30T21:25:33.092Z,2.38
2022-07-30T21:28:36.035Z,2.60
2022-07-30T21:32:01.659Z,2.75
2022-07-30T21:35:08.148Z,2.60
2022-07-30T21:38:11.660Z,2.47
2022-07-30T21:41:15.337Z,2.38
2022-07-30T21:44:17.562Z,2.38
2022-07-30T21:47:19.677Z,2.47
2022-07-30T21:50:22.261Z,2.00
2022-07-30T21:53:26.494Z,2.22
2022-07-30T21:56:46.850Z,2.03
2022-07-30T21:59:48.993Z,2.22
2022-07-30T22:02:52.866Z,1.80
2022-07-30T22:05:56.423Z,1.90
2022-07-30T22:08:58.671Z,2.25
2022-07-30T22:12:02.450Z,2.20
2022-07-30T22:15:15.167Z,2.20
2022-07-30T22:18:17.591Z,2.15
2022-07-30T22:21:23.149Z,1.85
2022-07-30T22:24:29.431Z,1.83
2022-07-30T22:27:39.862Z,1.83
2022-07-30T22:30:46.158Z,1.85
2022-07-30T22:33:49.790Z,1.77
2022-07-30T22:36:53.121Z,1.88
2022-07-30T22:39:59.726Z,1.75
2022-07-30T22:43:09.679Z,1.65
2022-07-30T22:46:30.991Z,1.52
2022-07-30T22:49:46.397Z,1.67
2022-07-30T22:53:02.445Z,1.70
2022-07-30T22:56:20.348Z,1.85
2022-07-30T22:59:29.126Z,1.77
2022-07-30T23:02:50.039Z,1.38
2022-07-30T23:05:55.192Z,1.55
2022-07-30T23:08:59.342Z,1.85
2022-07-30T23:12:01.807Z,1.80
2022-07-30T23:15:06.034Z,1.48
2022-07-30T23:18:08.537Z,1.60
2022-07-30T23:21:20.830Z,1.60
2022-07-30T23:24:23.969Z,1.50
2022-07-30T23:27:26.605Z,1.70
2022-07-30T23:30:33.871Z,1.45
2022-07-30T23:33:36.518Z,1.30
2022-07-30T23:36:38.666Z,1.30
2022-07-30T23:39:40.872Z,1.73
2022-07-30T23:42:43.168Z,1.38
2022-07-30T23:45:47.587Z,1.10
2022-07-30T23:48:50.892Z,1.40
2022-07-30T23:51:53.428Z,1.42
2022-07-30T23:54:55.608Z,1.30
2022-07-30T23:57:58.391Z,1.38
